Time;durP1;ratioP1;P1;durP2;ratioP2;P2;SDS_P1;SDS_P2;PMS_P1;PMS_P2;Temp;Humidity;BMP_temperature;BMP_pressure;BME280_temperature;BME280_humidity;BME280_pressure;Samples;Min_cycle;Max_cycle;Signal;HPM_P1;HPM_P2
2022/03/08 00:24:16;;;;;;;25.45;15.00;;;-1.40;81.70;;;;;;5731413;23;20126;-78
2022/03/08 00:32:33;;;;;;;30.73;16.25;;;-1.30;81.40;;;;;;4951554;28;20102;-80
2022/03/08 00:35:09;;;;;;;27.00;15.93;;;-1.40;81.70;;;;;;4959925;28;20031;-79
2022/03/08 00:37:47;;;;;;;26.95;15.52;;;-1.50;82.30;;;;;;4963278;28;20035;-78
2022/03/08 00:40:41;;;;;;;26.60;15.07;;;-1.50;82.90;;;;;;4947994;29;20034;-79
2022/03/08 00:43:19;;;;;;;24.63;14.27;;;-1.60;83.10;;;;;;4955442;29;20070;-77
2022/03/08 00:46:01;;;;;;;27.08;14.55;;;-1.50;83.00;;;;;;4962804;28;20142;-77
2022/03/08 00:48:56;;;;;;;29.00;15.38;;;-1.50;82.60;;;;;;4962836;29;20039;-78
2022/03/08 00:51:23;;;;;;;26.30;15.82;;;-1.50;82.00;;;;;;4948066;29;20062;-78
2022/03/08 00:53:50;;;;;;;29.33;15.52;;;-1.50;82.30;;;;;;4957405;29;20051;-77
2022/03/08 00:56:16;;;;;;;30.58;16.40;;;-1.50;82.10;;;;;;4950575;28;20023;-78
2022/03/08 01:03:19;;;;;;;26.75;15.55;;;-1.50;82.40;;;;;;4905502;29;20173;-79
2022/03/08 01:10:32;;;;;;;26.15;14.95;;;-1.60;82.70;;;;;;4902785;29;20048;-77
2022/03/08 01:12:59;;;;;;;25.40;15.15;;;-1.70;83.50;;;;;;4923141;29;20045;-78
2022/03/08 01:15:26;;;;;;;29.40;15.80;;;-1.70;83.60;;;;;;4908492;29;20231;-78
2022/03/08 01:21:25;;;;;;;25.58;15.10;;;-1.80;83.70;;;;;;4923628;29;20112;-78
2022/03/08 01:27:48;;;;;;;24.73;15.07;;;-1.90;84.00;;;;;;4886448;29;20114;-78
2022/03/08 01:30:17;;;;;;;23.98;14.70;;;-2.00;84.50;;;;;;4889480;29;20096;-78
2022/03/08 01:32:43;;;;;;;23.83;14.38;;;-2.10;85.20;;;;;;4904804;29;20033;-79
2022/03/08 01:35:14;;;;;;;25.23;14.35;;;-2.10;85.30;;;;;;4884442;29;20025;-78
2022/03/08 01:37:43;;;;;;;27.60;14.82;;;-2.20;85.40;;;;;;4870856;29;20040;-79
2022/03/08 01:40:14;;;;;;;27.08;14.55;;;-2.30;85.70;;;;;;4886246;29;20140;-79
2022/03/08 01:42:48;;;;;;;24.65;14.30;;;-2.20;86.00;;;;;;4916854;29;20123;-79
2022/03/08 01:45:20;;;;;;;26.25;15.02;;;-2.30;86.50;;;;;;4928359;29;20031;-79
2022/03/08 01:47:47;;;;;;;25.15;14.18;;;-2.30;86.50;;;;;;4927407;29;20028;-79
2022/03/08 01:50:15;;;;;;;26.92;15.15;;;-2.30;86.50;;;;;;4934286;29;20030;-79
2022/03/08 01:52:47;;;;;;;26.30;14.18;;;-2.30;86.80;;;;;;4927355;29;20151;-79
2022/03/08 01:55:21;;;;;;;27.52;14.35;;;-2.40;87.00;;;;;;4943198;29;20103;-78
2022/03/08 01:57:52;;;;;;;25.55;14.15;;;-2.40;87.80;;;;;;4908110;29;20370;-79
2022/03/08 05:33:07;;;;;;;23.52;11.73;;;-3.10;90.70;;;;;;5730670;23;20058;-80
2022/03/08 05:35:59;;;;;;;22.88;11.90;;;-3.20;90.80;;;;;;4973887;28;20046;-80
2022/03/08 05:38:24;;;;;;;22.73;11.63;;;-3.30;90.90;;;;;;4976668;28;20083;-80
2022/03/08 05:41:43;;;;;;;;;;;;;;;;;;;;;
2022/03/08 05:44:14;;;;;;;19.90;11.57;;;-3.20;91.00;;;;;;4996541;23;19965;-80
2022/03/08 05:46:39;;;;;;;22.80;12.23;;;-3.20;91.30;;;;;;4964170;28;20027;-78
2022/03/08 05:49:14;;;;;;;24.88;13.25;;;-3.30;91.20;;;;;;4964043;28;20019;-79
2022/03/08 06:20:15;;;;;;;22.85;12.32;;;-2.90;90.40;;;;;;4957162;23;20178;-81
2022/03/08 06:22:57;;;;;;;23.67;12.40;;;-2.80;90.40;;;;;;4924344;29;20051;-79
2022/03/08 06:25:44;;;;;;;24.27;12.80;;;-2.70;90.80;;;;;;4925593;29;20071;-79
2022/03/08 06:28:17;;;;;;;24.25;12.60;;;-2.70;90.70;;;;;;4893920;29;20040;-78
2022/03/08 06:30:43;;;;;;;23.45;12.25;;;-2.50;90.80;;;;;;4903371;29;20035;-79
2022/03/08 06:33:32;;;;;;;26.60;12.27;;;-2.50;90.60;;;;;;4896549;29;20020;-78
2022/03/08 06:36:28;;;;;;;26.10;12.80;;;-2.30;90.30;;;;;;4907324;29;20028;-80
2022/03/08 06:39:47;;;;;;;24.40;11.70;;;-2.20;90.10;;;;;;4900081;29;20087;-79
2022/03/08 06:42:51;;;;;;;21.47;12.53;;;-2.10;90.10;;;;;;4921512;29;20386;-79
2022/03/08 06:45:54;;;;;;;;;;;;;;;;;;;;;
2022/03/08 07:07:39;;;;;;;20.15;10.35;;;-1.10;83.60;;;;;;4921576;29;20043;-79
2022/03/08 07:10:07;;;;;;;16.80;10.38;;;-0.90;82.60;;;;;;4901121;29;20095;-78
2022/03/08 07:12:59;;;;;;;19.38;11.02;;;-0.70;82.50;;;;;;4905374;29;20024;-79
2022/03/08 07:15:25;;;;;;;16.70;10.43;;;-0.50;81.90;;;;;;4906769;29;20062;-78
2022/03/08 07:18:02;;;;;;;16.48;10.90;;;-0.40;81.30;;;;;;4939579;29;20314;-78
2022/03/08 07:21:08;;;;;;;21.05;11.00;;;-0.30;80.80;;;;;;4885772;29;20032;-79
2022/03/08 07:23:50;;;;;;;18.83;10.10;;;-0.10;79.50;;;;;;4921397;29;20319;-78
2022/03/08 07:26:29;;;;;;;17.65;9.73;;;-0.10;79.20;;;;;;4907892;29;20095;-78
2022/03/08 07:29:10;;;;;;;19.38;9.98;;;0.00;78.60;;;;;;4904616;29;20092;-79
2022/03/08 07:31:36;;;;;;;20.35;10.70;;;0.10;78.30;;;;;;4921365;29;20036;-78
2022/03/08 07:34:07;;;;;;;17.58;10.27;;;0.20;78.60;;;;;;4925245;29;20028;-78
2022/03/08 07:36:42;;;;;;;18.58;9.70;;;0.30;78.30;;;;;;4891733;29;20040;-80
2022/03/08 07:39:16;;;;;;;15.90;9.73;;;0.40;77.70;;;;;;4905939;29;20039;-78
2022/03/08 07:42:36;;;;;;;17.27;9.60;;;0.60;77.70;;;;;;4906282;29;20036;-78
2022/03/08 07:45:07;;;;;;;15.45;9.50;;;0.80;77.40;;;;;;4894375;29;20100;-80
2022/03/08 07:47:38;;;;;;;15.75;9.05;;;1.00;76.70;;;;;;4894225;29;20114;-80
2022/03/08 07:50:17;;;;;;;15.15;8.25;;;1.10;76.10;;;;;;4924289;29;20040;-80
2022/03/08 07:52:43;;;;;;;15.25;8.25;;;1.30;74.30;;;;;;4904050;29;20312;-79
2022/03/08 07:55:10;;;;;;;14.55;8.20;;;1.40;73.40;;;;;;4916561;29;20024;-80
2022/03/08 07:57:41;;;;;;;17.27;9.13;;;1.50;72.80;;;;;;4891824;29;20037;-80
2022/03/08 08:03:39;;;;;;;17.75;9.07;;;1.70;72.70;;;;;;4910040;29;20037;-79
2022/03/08 08:06:08;;;;;;;16.75;8.75;;;1.90;72.50;;;;;;4897081;29;20035;-79
2022/03/08 08:08:34;;;;;;;17.05;8.82;;;1.90;72.10;;;;;;4908155;29;20103;-79
2022/03/08 08:11:10;;;;;;;15.55;8.75;;;2.20;71.80;;;;;;4911763;29;20022;-80
2022/03/08 08:13:43;;;;;;;14.07;8.07;;;2.30;70.80;;;;;;4906142;29;20055;-79
2022/03/08 08:16:09;;;;;;;15.05;7.95;;;2.40;70.70;;;;;;4887773;29;20044;-79
2022/03/08 08:18:38;;;;;;;15.25;8.48;;;2.50;70.40;;;;;;4913475;29;20029;-79
2022/03/08 08:21:06;;;;;;;14.88;8.10;;;2.60;70.20;;;;;;4920150;29;20028;-80
2022/03/08 08:23:43;;;;;;;14.55;8.73;;;2.70;69.70;;;;;;4889270;29;20028;-78
2022/03/08 08:26:11;;;;;;;12.73;7.93;;;2.80;69.20;;;;;;4919201;29;20179;-79
2022/03/08 08:29:13;;;;;;;13.95;7.95;;;3.00;69.20;;;;;;4904967;29;20208;-78
2022/03/08 08:31:52;;;;;;;;;;;;;;;;;;;;;
2022/03/08 08:34:34;;;;;;;13.52;7.75;;;3.10;69.20;;;;;;4899876;29;20052;-79
2022/03/08 08:37:03;;;;;;;12.45;8.10;;;3.20;69.00;;;;;;4893967;29;20084;-80
2022/03/08 08:40:17;;;;;;;13.00;8.02;;;3.30;69.10;;;;;;4918144;29;20030;-79
2022/03/08 08:43:20;;;;;;;12.10;7.53;;;3.50;68.90;;;;;;4856544;29;20052;-79
2022/03/08 08:46:26;;;;;;;10.00;6.60;;;3.70;68.60;;;;;;4908945;29;20047;-80
2022/03/08 08:49:15;;;;;;;12.55;6.65;;;3.90;68.30;;;;;;4904790;29;20033;-80
2022/03/08 08:51:41;;;;;;;9.80;6.15;;;4.00;67.40;;;;;;4905269;29;20093;-80
2022/03/08 08:54:14;;;;;;;;;;;4.20;67.10;;;;;;4887436;29;20262;-80
2022/03/08 08:56:50;;;;;;;10.60;6.07;;;4.30;66.40;;;;;;4914611;29;19907;-80
2022/03/08 08:59:20;;;;;;;11.35;6.30;;;4.30;66.10;;;;;;4921940;29;20063;-79
2022/03/08 09:02:00;;;;;;;12.07;6.18;;;4.40;65.60;;;;;;4885689;29;20051;-79
2022/03/08 09:04:34;;;;;;;11.57;5.97;;;4.50;65.90;;;;;;4892642;29;20055;-78
2022/03/08 09:07:33;;;;;;;;;;;4.50;65.40;;;;;;4899491;29;20039;-80
2022/03/08 09:10:04;;;;;;;13.77;5.80;;;4.50;65.50;;;;;;4892811;29;19927;-78
2022/03/08 09:12:30;;;;;;;9.40;6.17;;;4.70;65.60;;;;;;4885235;29;20036;-79
2022/03/08 09:15:00;;;;;;;11.65;6.43;;;4.70;65.10;;;;;;4919310;29;20028;-79
2022/03/08 09:17:29;;;;;;;22.20;6.53;;;4.70;65.00;;;;;;5049710;23;20037;-79
2022/03/08 09:20:17;;;;;;;12.10;6.05;;;4.70;64.80;;;;;;4911687;29;20060;-79
2022/03/08 09:23:01;;;;;;;13.95;5.90;;;4.70;65.40;;;;;;4891536;29;20048;-79
2022/03/08 09:25:33;;;;;;;10.40;5.53;;;4.70;64.80;;;;;;4904081;29;20055;-79
2022/03/08 09:28:03;;;;;;;11.65;5.68;;;4.80;64.90;;;;;;4907314;29;20218;-79
2022/03/08 09:30:35;;;;;;;11.23;5.82;;;4.90;65.30;;;;;;4922680;29;20226;-79
2022/03/08 09:33:04;;;;;;;14.05;6.72;;;4.90;64.50;;;;;;4897210;29;20119;-79
2022/03/08 09:35:42;;;;;;;9.43;5.93;;;5.00;64.20;;;;;;4919862;29;20025;-79
2022/03/08 09:38:13;;;;;;;14.57;6.20;;;5.10;63.50;;;;;;4909194;29;20048;-79
2022/03/08 09:40:47;;;;;;;9.02;5.60;;;5.10;63.00;;;;;;4907563;29;20037;-79
2022/03/08 09:43:17;;;;;;;11.90;5.78;;;5.10;63.00;;;;;;4888500;29;20061;-79
2022/03/08 09:45:45;;;;;;;10.95;6.53;;;5.20;62.50;;;;;;4911085;29;20346;-80
2022/03/08 09:48:11;;;;;;;11.15;5.50;;;5.20;62.80;;;;;;4906871;29;20039;-80
2022/03/08 09:50:37;;;;;;;9.95;5.47;;;5.30;62.70;;;;;;4905368;29;20036;-79
2022/03/08 09:53:04;;;;;;;9.35;5.07;;;5.50;62.50;;;;;;4921591;29;20032;-79
2022/03/08 09:55:42;;;;;;;11.52;6.22;;;5.70;62.50;;;;;;4906552;29;20409;-80
2022/03/08 09:58:08;;;;;;;9.45;5.20;;;5.60;62.00;;;;;;4905648;29;20028;-80
2022/03/08 10:00:51;;;;;;;9.07;5.47;;;5.70;62.00;;;;;;4910471;29;20092;-79
2022/03/08 10:03:30;;;;;;;10.98;5.75;;;5.80;61.90;;;;;;4906996;29;20033;-79
2022/03/08 10:06:16;;;;;;;9.15;5.60;;;5.90;61.00;;;;;;4899471;29;20055;-80
2022/03/08 10:08:41;;;;;;;9.75;5.78;;;6.00;61.20;;;;;;4908004;29;20060;-78
2022/03/08 10:11:14;;;;;;;7.47;5.20;;;6.10;60.50;;;;;;4906528;29;20028;-79
2022/03/08 10:13:46;;;;;;;9.27;4.97;;;6.30;60.10;;;;;;4907064;29;20031;-80
2022/03/08 10:16:27;;;;;;;10.73;5.38;;;6.30;59.60;;;;;;4905800;29;20044;-78
2022/03/08 10:19:02;;;;;;;9.70;5.05;;;6.40;58.60;;;;;;4907702;29;21503;-79
2022/03/08 10:21:47;;;;;;;9.07;4.50;;;6.50;58.30;;;;;;4889922;29;20052;-80
2022/03/08 10:24:29;;;;;;;9.48;4.65;;;6.50;58.30;;;;;;4905763;29;20315;-77
2022/03/08 10:27:10;;;;;;;10.18;5.38;;;6.50;58.40;;;;;;4888074;29;20055;-80
2022/03/08 10:29:39;;;;;;;6.40;4.13;;;6.60;58.10;;;;;;4887969;29;20045;-78
2022/03/08 10:32:21;;;;;;;7.55;4.60;;;6.70;57.50;;;;;;4905222;29;20089;-78
2022/03/08 10:34:55;;;;;;;10.65;4.50;;;6.70;57.30;;;;;;4905275;29;20017;-78
2022/03/08 10:37:24;;;;;;;12.55;5.40;;;6.70;57.20;;;;;;4889871;29;20032;-79
2022/03/08 10:39:59;;;;;;;8.73;5.05;;;6.80;57.20;;;;;;4907750;29;20024;-79
2022/03/08 10:42:31;;;;;;;6.85;4.45;;;7.00;56.70;;;;;;4887639;29;20037;-78
2022/03/08 10:45:13;;;;;;;11.82;4.53;;;7.10;55.50;;;;;;4905952;29;20259;-78
2022/03/08 10:47:45;;;;;;;9.52;4.38;;;7.20;56.30;;;;;;4905347;29;20040;-79
2022/03/08 10:50:13;;;;;;;8.05;4.85;;;7.40;55.50;;;;;;4906651;29;20061;-79
2022/03/08 10:52:41;;;;;;;7.75;4.25;;;7.60;55.40;;;;;;4906816;29;20334;-78
2022/03/08 10:55:24;;;;;;;10.18;5.15;;;7.70;55.00;;;;;;4905794;29;20089;-79
2022/03/08 10:58:03;;;;;;;8.55;4.70;;;7.90;55.00;;;;;;4906600;29;20037;-79
2022/03/08 11:00:38;;;;;;;;;;;7.90;53.90;;;;;;4908006;29;20047;-79
2022/03/08 11:03:10;;;;;;;8.32;4.30;;;7.90;54.30;;;;;;4907319;29;19945;-79
2022/03/08 11:05:46;;;;;;;8.52;4.68;;;8.30;54.30;;;;;;4899400;29;20120;-80
2022/03/08 11:08:13;;;;;;;7.38;4.35;;;8.90;52.50;;;;;;4901748;29;20037;-79
2022/03/08 11:10:40;;;;;;;8.07;4.47;;;9.50;52.00;;;;;;4890122;29;20104;-79
2022/03/08 11:13:10;;;;;;;8.90;4.50;;;9.90;50.70;;;;;;4899171;29;20028;-78
2022/03/08 11:19:26;;;;;;;9.13;4.53;;;10.80;48.90;;;;;;4905633;29;20539;-80
2022/03/08 11:25:20;;;;;;;7.30;4.50;;;11.80;47.80;;;;;;4906572;29;20106;-80
2022/03/08 11:27:47;;;;;;;6.72;4.05;;;12.50;46.70;;;;;;4906067;29;20028;-83
2022/03/08 11:33:58;;;;;;;6.32;3.92;;;13.80;44.40;;;;;;4906794;29;20230;-80
2022/03/08 11:36:35;;;;;;;6.53;4.10;;;13.90;44.30;;;;;;4886513;29;20028;-80
2022/03/08 11:39:43;;;;;;;7.20;4.47;;;13.80;44.30;;;;;;4905590;29;20052;-81
2022/03/08 11:42:18;;;;;;;5.57;3.67;;;13.80;44.40;;;;;;4850499;29;20025;-80
2022/03/08 11:45:03;;;;;;;5.65;3.70;;;14.90;43.80;;;;;;4864126;29;20375;-81
2022/03/08 11:50:51;;;;;;;10.95;5.10;;;15.10;42.70;;;;;;4866172;29;20039;-81
2022/03/08 11:53:23;;;;;;;7.30;4.53;;;16.00;42.40;;;;;;4865818;29;20046;-80
2022/03/08 11:55:58;;;;;;;6.72;4.00;;;16.60;41.70;;;;;;4859580;29;20307;-81
2022/03/08 11:59:09;;;;;;;7.13;4.32;;;16.60;41.00;;;;;;4849435;29;20065;-81
2022/03/08 12:02:19;;;;;;;9.18;4.72;;;16.30;41.10;;;;;;4810741;29;20046;-81
2022/03/08 12:04:45;;;;;;;10.20;5.18;;;16.40;41.20;;;;;;4811600;29;20055;-82
2022/03/08 12:07:25;;;;;;;11.93;4.80;;;17.40;41.10;;;;;;4810750;29;20109;-80
2022/03/08 12:10:25;;;;;;;10.75;5.82;;;17.80;40.50;;;;;;4809190;29;20388;-81
2022/03/08 12:12:55;;;;;;;6.55;4.72;;;17.50;40.10;;;;;;4828225;29;20179;-81
2022/03/08 12:15:29;;;;;;;9.02;5.25;;;16.80;41.00;;;;;;4800152;29;20117;-82
2022/03/08 12:18:20;;;;;;;8.88;4.43;;;17.90;41.10;;;;;;4818269;29;20046;-79
2022/03/08 12:21:29;;;;;;;10.63;4.82;;;19.00;39.80;;;;;;4860151;29;20025;-80
2022/03/08 12:24:08;;;;;;;25.17;5.43;;;20.20;39.80;;;;;;4849429;29;20166;-82
2022/03/08 12:26:40;;;;;;;19.85;4.95;;;21.80;38.00;;;;;;4865873;29;20321;-82
2022/03/08 12:29:28;;;;;;;10.32;4.60;;;21.70;37.70;;;;;;4837278;29;20068;-80
2022/03/08 12:32:01;;;;;;;6.60;4.65;;;21.40;37.50;;;;;;4851650;29;20038;-80
2022/03/08 12:34:37;;;;;;;7.40;4.15;;;21.00;37.50;;;;;;4864013;29;20073;-80
2022/03/08 12:38:24;;;;;;;11.02;5.30;;;20.90;37.40;;;;;;4891884;29;20100;-81
2022/03/08 12:40:55;;;;;;;10.63;5.00;;;19.80;37.40;;;;;;4891682;29;20084;-82
2022/03/08 14:29:20;;;;;;;5.40;4.03;;;27.30;33.20;;;;;;4916129;29;20114;-82
2022/03/08 14:32:24;;;;;;;6.88;5.05;;;27.30;33.20;;;;;;4882490;29;20070;-82
2022/03/08 14:35:11;;;;;;;6.65;5.30;;;27.20;33.30;;;;;;4889327;29;20047;-81
2022/03/08 14:37:42;;;;;;;8.13;4.90;;;27.40;33.80;;;;;;4897947;29;20035;-82
2022/03/08 14:40:08;;;;;;;8.10;5.43;;;29.20;32.80;;;;;;4901860;29;20039;-81
2022/03/08 14:43:14;;;;;;;7.95;4.95;;;29.10;33.00;;;;;;4914795;29;20024;-81
2022/03/08 14:45:49;;;;;;;6.13;4.78;;;29.60;32.90;;;;;;4893463;29;20180;-83
2022/03/08 14:51:58;;;;;;;8.63;5.07;;;28.20;33.30;;;;;;4913223;29;20222;-81
2022/03/08 14:54:30;;;;;;;6.38;4.60;;;29.20;33.90;;;;;;4898365;29;20163;-81
2022/03/08 14:56:55;;;;;;;7.82;4.65;;;30.40;33.20;;;;;;4904804;29;20123;-81
2022/03/08 14:59:24;;;;;;;6.93;4.22;;;30.50;32.90;;;;;;4903640;29;20161;-81
2022/03/08 15:01:50;;;;;;;6.93;3.92;;;29.70;32.10;;;;;;4906488;29;20261;-80
2022/03/08 15:04:16;;;;;;;6.40;4.07;;;29.40;32.90;;;;;;4912540;29;20020;-80
2022/03/08 15:06:57;;;;;;;6.18;4.00;;;29.10;31.80;;;;;;4904668;29;20045;-82
2022/03/08 15:09:33;;;;;;;4.88;4.25;;;27.90;31.60;;;;;;4897216;29;20032;-81
2022/03/08 15:12:27;;;;;;;6.72;4.35;;;26.60;32.20;;;;;;4913007;29;20063;-81
2022/03/08 15:14:55;;;;;;;5.50;4.35;;;26.70;32.30;;;;;;4912776;29;20031;-81
2022/03/08 15:17:21;;;;;;;7.00;3.88;;;26.70;34.00;;;;;;4911483;29;20316;-80
2022/03/08 15:20:12;;;;;;;6.28;4.20;;;27.30;33.90;;;;;;4912827;29;20044;-82
2022/03/08 15:22:55;;;;;;;7.47;4.00;;;27.60;32.40;;;;;;4914953;29;20042;-81
2022/03/08 15:25:25;;;;;;;5.00;3.58;;;26.30;32.20;;;;;;4895537;29;20052;-81
2022/03/08 15:28:08;;;;;;;5.15;3.60;;;25.10;32.70;;;;;;4894475;29;20029;-82
2022/03/08 15:30:39;;;;;;;5.20;3.90;;;23.10;33.40;;;;;;4885044;29;20033;-80
2022/03/08 15:33:05;;;;;;;5.40;3.97;;;21.90;34.30;;;;;;4878366;29;20036;-80
2022/03/08 15:35:35;;;;;;;5.85;3.90;;;22.30;33.90;;;;;;4892877;29;20023;-82
2022/03/08 15:38:01;;;;;;;5.97;4.20;;;22.40;33.90;;;;;;4894196;29;20029;-80
2022/03/08 15:40:29;;;;;;;5.70;3.92;;;22.40;34.20;;;;;;4878023;29;20021;-82
2022/03/08 15:42:59;;;;;;;5.28;4.20;;;23.00;33.50;;;;;;4893605;29;20331;-82
2022/03/08 15:45:25;;;;;;;6.82;4.13;;;23.70;34.70;;;;;;4868353;29;20064;-81
2022/03/08 15:48:00;;;;;;;6.05;3.95;;;24.50;33.00;;;;;;4890173;29;20025;-82
2022/03/08 15:50:55;;;;;;;5.43;3.90;;;24.40;33.20;;;;;;4893837;29;20044;-82
2022/03/08 15:53:34;;;;;;;;;;;;;;;;;;;;;
2022/03/08 15:56:04;;;;;;;5.90;4.25;;;23.60;33.20;;;;;;4894232;29;20044;-80
2022/03/08 15:58:30;;;;;;;7.32;4.40;;;23.70;33.40;;;;;;4893216;29;20329;-80
2022/03/08 16:01:01;;;;;;;8.45;4.38;;;23.90;32.90;;;;;;4876289;29;20044;-80
2022/03/08 16:03:30;;;;;;;6.13;4.55;;;23.20;33.40;;;;;;4893661;29;20060;-80
2022/03/08 16:05:59;;;;;;;7.65;4.15;;;23.10;34.40;;;;;;4892862;29;20019;-81
2022/03/08 16:08:26;;;;;;;6.05;4.45;;;23.40;33.60;;;;;;4896378;29;20041;-80
2022/03/08 16:10:54;;;;;;;5.68;4.22;;;23.10;33.90;;;;;;4887077;29;20033;-82
2022/03/08 16:13:47;;;;;;;9.73;5.10;;;22.70;33.80;;;;;;4885936;29;20325;-81
2022/03/08 16:16:59;;;;;;;6.50;4.13;;;22.40;33.90;;;;;;4896715;29;20366;-82
2022/03/08 16:19:37;;;;;;;7.32;4.53;;;21.70;34.20;;;;;;4841512;29;20041;-81
2022/03/08 16:22:28;;;;;;;7.57;4.57;;;21.50;36.00;;;;;;4879364;29;20331;-81
2022/03/08 16:25:00;;;;;;;6.55;4.47;;;21.50;34.90;;;;;;4887513;29;20075;-82
2022/03/08 16:27:26;;;;;;;5.75;4.30;;;21.30;35.70;;;;;;4896549;29;20313;-81
2022/03/08 16:29:52;;;;;;;5.10;4.50;;;21.50;34.90;;;;;;4898011;29;20051;-82
2022/03/08 16:32:33;;;;;;;8.82;5.22;;;21.20;35.70;;;;;;4881114;29;20052;-81
2022/03/08 16:34:59;;;;;;;7.90;5.68;;;21.60;36.00;;;;;;4897764;29;20032;-81
2022/03/08 16:38:02;;;;;;;9.27;5.85;;;21.70;35.70;;;;;;4895809;29;20126;-81
2022/03/08 16:40:56;;;;;;;7.93;5.43;;;21.20;35.70;;;;;;4896050;29;20047;-81
2022/03/08 16:43:22;;;;;;;6.93;5.05;;;20.60;36.20;;;;;;4896733;29;20044;-81
2022/03/08 16:45:48;;;;;;;6.40;5.07;;;19.80;37.00;;;;;;4896563;29;20032;-81
2022/03/08 16:48:22;;;;;;;8.40;5.07;;;18.20;38.10;;;;;;4897611;29;20055;-83
2022/03/08 16:50:53;;;;;;;11.73;5.47;;;16.30;39.20;;;;;;4896855;29;20033;-82
2022/03/08 17:18:05;;;;;;;12.00;5.60;;;10.20;47.30;;;;;;4887623;29;20040;-81
2022/03/08 17:20:34;;;;;;;10.00;5.97;;;9.80;47.60;;;;;;4912504;29;20067;-81
2022/03/08 17:23:32;;;;;;;10.27;5.75;;;9.70;48.20;;;;;;4918968;29;20366;-81
2022/03/08 17:26:04;;;;;;;12.55;5.68;;;9.50;47.50;;;;;;4885738;29;20039;-82
2022/03/08 17:28:31;;;;;;;9.75;5.45;;;9.30;49.10;;;;;;4885298;29;20056;-80
2022/03/08 17:30:57;;;;;;;11.73;5.78;;;9.10;49.20;;;;;;4899630;29;20221;-81
2022/03/08 17:33:26;;;;;;;9.65;5.22;;;8.90;49.60;;;;;;4900876;29;20072;-81
2022/03/08 17:35:52;;;;;;;11.15;5.80;;;8.80;50.20;;;;;;4902540;29;20062;-82
2022/03/08 17:38:22;;;;;;;10.70;5.78;;;8.80;49.90;;;;;;4900031;29;20012;-82
2022/03/08 17:40:56;;;;;;;9.18;5.25;;;8.60;50.70;;;;;;4901121;29;20086;-81
2022/03/08 17:43:22;;;;;;;10.25;5.57;;;8.50;50.60;;;;;;4901035;29;20162;-80
2022/03/08 17:45:53;;;;;;;9.68;5.47;;;8.30;51.10;;;;;;4899304;29;20031;-82
2022/03/08 17:48:23;;;;;;;9.05;5.35;;;8.30;51.20;;;;;;4907797;29;20024;-82
2022/03/08 17:51:26;;;;;;;9.88;5.70;;;8.10;50.70;;;;;;4917719;29;20028;-80
2022/03/08 17:57:38;;;;;;;14.13;6.20;;;7.90;51.10;;;;;;4851365;29;20175;-80
2022/03/08 18:00:22;;;;;;;11.00;6.22;;;7.80;51.50;;;;;;4882669;29;20055;-80
2022/03/08 18:02:54;;;;;;;12.73;7.57;;;7.70;51.60;;;;;;4884476;29;20028;-81
2022/03/08 18:05:21;;;;;;;12.00;6.45;;;7.50;52.50;;;;;;4897787;29;20043;-81
2022/03/08 18:07:49;;;;;;;10.82;6.57;;;7.30;52.30;;;;;;4884177;29;20102;-80
2022/03/08 18:10:24;;;;;;;10.98;6.28;;;7.20;52.90;;;;;;4883093;29;20029;-81
2022/03/08 18:13:16;;;;;;;11.05;6.38;;;7.10;53.40;;;;;;4876296;29;20107;-81
2022/03/08 18:15:48;;;;;;;13.35;6.45;;;6.90;53.40;;;;;;4896031;29;20047;-80
2022/03/08 18:18:45;;;;;;;15.93;8.07;;;6.80;54.10;;;;;;4901368;29;20095;-82
2022/03/08 18:21:17;;;;;;;15.30;7.22;;;6.70;54.60;;;;;;4901888;29;20024;-80
2022/03/08 18:23:46;;;;;;;46.47;23.42;;;6.60;55.70;;;;;;4915166;29;20032;-80
2022/03/08 18:26:14;;;;;;;56.72;22.85;;;6.50;57.00;;;;;;4899702;29;20341;-80
2022/03/08 18:28:40;;;;;;;17.02;9.18;;;6.50;56.80;;;;;;4899716;29;20032;-80
2022/03/08 18:31:09;;;;;;;14.80;8.10;;;6.50;56.60;;;;;;4898443;29;20032;-79
2022/03/08 18:33:36;;;;;;;13.68;7.53;;;6.40;56.20;;;;;;4899059;29;20107;-77
2022/03/08 18:36:02;;;;;;;13.25;7.53;;;6.30;56.10;;;;;;4917636;29;20091;-80
2022/03/08 18:38:28;;;;;;;15.77;7.70;;;6.20;56.90;;;;;;4898959;29;20191;-79
2022/03/08 18:41:05;;;;;;;12.00;7.60;;;6.20;56.50;;;;;;4916092;29;20028;-78
2022/03/08 18:43:31;;;;;;;12.85;6.57;;;6.10;57.00;;;;;;4899929;29;20024;-78
2022/03/08 18:46:00;;;;;;;14.90;8.73;;;6.10;56.40;;;;;;4915833;29;20345;-78
2022/03/08 18:48:28;;;;;;;14.68;8.07;;;6.00;57.00;;;;;;4899007;29;20050;-79
2022/03/08 18:51:17;;;;;;;14.50;7.70;;;5.90;57.50;;;;;;4917226;29;20040;-79
2022/03/08 18:54:18;;;;;;;13.30;7.80;;;5.90;57.90;;;;;;4897651;29;20149;-78
2022/03/08 18:56:48;;;;;;;16.40;8.57;;;5.80;57.50;;;;;;4900629;29;20263;-79
2022/03/08 18:59:14;;;;;;;15.75;7.72;;;5.70;57.30;;;;;;4914580;29;20092;-78
2022/03/08 19:01:40;;;;;;;14.18;8.55;;;5.60;58.20;;;;;;4913538;29;20032;-78
2022/03/08 19:04:09;;;;;;;16.83;9.25;;;5.60;59.30;;;;;;4909638;29;20075;-77
2022/03/08 19:06:35;;;;;;;18.50;9.63;;;5.40;59.00;;;;;;4916046;29;20127;-77
2022/03/08 19:09:01;;;;;;;20.33;9.73;;;5.40;59.10;;;;;;4898801;29;20572;-77
2022/03/08 19:11:56;;;;;;;17.73;8.88;;;5.30;59.50;;;;;;4911465;29;20200;-80
2022/03/08 19:14:28;;;;;;;18.45;8.95;;;5.30;59.20;;;;;;4896404;29;20111;-81
2022/03/08 19:17:06;;;;;;;15.10;8.48;;;5.20;59.80;;;;;;4896905;29;20238;-79
2022/03/08 19:20:10;;;;;;;18.85;9.73;;;5.10;59.60;;;;;;4909331;29;20270;-78
2022/03/08 19:22:36;;;;;;;18.55;9.32;;;5.00;60.80;;;;;;4909566;29;20032;-78
2022/03/08 19:25:08;;;;;;;14.77;8.40;;;5.00;60.90;;;;;;4926897;29;20079;-78
2022/03/08 19:27:34;;;;;;;15.82;8.40;;;4.90;60.50;;;;;;4910117;29;20295;-80
2022/03/08 19:30:07;;;;;;;18.60;9.23;;;5.00;59.70;;;;;;4909809;29;20031;-78
2022/03/08 19:32:35;;;;;;;18.67;9.15;;;4.90;59.60;;;;;;4925899;29;20042;-78
2022/03/08 19:36:09;;;;;;;15.82;7.88;;;4.80;59.60;;;;;;4913005;29;20034;-78
2022/03/08 19:39:06;;;;;;;16.30;8.98;;;4.80;60.40;;;;;;4886840;29;20256;-78
2022/03/08 19:41:41;;;;;;;14.75;8.85;;;4.60;60.60;;;;;;4904208;29;20331;-80
2022/03/08 19:44:07;;;;;;;18.10;9.43;;;4.50;60.40;;;;;;4906671;29;20103;-79
2022/03/08 20:09:49;;;;;;;15.80;8.40;;;3.70;64.30;;;;;;5989529;23;20021;-81
2022/03/08 20:12:15;;;;;;;15.23;7.05;;;3.50;64.10;;;;;;4946822;29;20225;-78
2022/03/08 20:15:00;;;;;;;15.68;6.78;;;3.40;64.10;;;;;;4964282;29;20027;-79
2022/03/08 20:17:26;;;;;;;14.30;7.60;;;3.40;64.90;;;;;;4946136;29;20047;-81
2022/03/08 20:19:52;;;;;;;14.48;7.70;;;3.40;66.30;;;;;;4964681;29;20028;-80
2022/03/08 20:22:33;;;;;;;12.35;7.30;;;3.40;66.40;;;;;;4964901;29;20027;-79
2022/03/08 20:25:21;;;;;;;15.20;8.43;;;3.40;66.70;;;;;;4947727;29;20335;-81
2022/03/08 20:28:05;;;;;;;16.17;8.30;;;3.30;66.30;;;;;;4964054;29;20031;-81
2022/03/08 20:30:31;;;;;;;17.10;8.75;;;3.20;65.70;;;;;;4946308;29;20047;-80
2022/03/08 20:32:58;;;;;;;15.38;9.30;;;3.20;66.20;;;;;;4964077;29;20039;-81
2022/03/08 20:38:40;;;;;;;16.45;8.50;;;3.00;67.40;;;;;;4964290;29;20035;-80
2022/03/08 20:41:10;;;;;;;15.77;8.63;;;3.00;68.10;;;;;;4947206;29;20221;-80
2022/03/08 20:43:42;;;;;;;16.40;9.43;;;3.00;68.10;;;;;;4946362;29;20038;-79
2022/03/08 20:46:17;;;;;;;15.10;8.45;;;2.90;68.30;;;;;;4945161;28;20106;-80
2022/03/08 20:48:46;;;;;;;17.60;9.15;;;2.90;69.40;;;;;;4942090;29;20039;-80
2022/03/08 20:51:12;;;;;;;17.17;8.60;;;2.90;69.40;;;;;;4932933;29;20027;-81
2022/03/08 20:53:41;;;;;;;14.63;9.23;;;2.90;68.90;;;;;;4943863;29;20258;-81
2022/03/08 20:56:13;;;;;;;16.83;9.00;;;2.80;68.40;;;;;;4950208;29;20329;-79
2022/03/08 20:58:58;;;;;;;13.93;8.52;;;2.70;68.40;;;;;;4965663;29;20054;-79
2022/03/08 21:01:27;;;;;;;16.65;9.02;;;2.60;68.90;;;;;;4966309;28;20031;-82
2022/03/08 21:03:53;;;;;;;17.15;8.98;;;2.50;70.00;;;;;;4950113;29;20031;-80
2022/03/08 21:06:25;;;;;;;18.02;9.43;;;2.50;70.50;;;;;;4951737;29;20023;-79
2022/03/08 21:08:54;;;;;;;16.52;9.35;;;2.50;70.00;;;;;;4950165;29;20047;-79
2022/03/08 21:19:33;;;;;;;18.52;8.90;;;2.40;71.90;;;;;;4754410;30;20048;-78
2022/03/08 21:22:00;;;;;;;19.80;9.57;;;2.50;71.60;;;;;;4733691;30;20036;-80
2022/03/08 21:25:22;;;;;;;19.90;9.48;;;2.40;72.30;;;;;;4775874;30;20051;-80
2022/03/08 21:31:56;;;;;;;;;;;;;;;;;;;;;
2022/03/08 21:35:01;;;;;;;18.38;9.15;;;2.20;72.00;;;;;;4812033;29;20097;-79
2022/03/08 21:38:11;;;;;;;19.63;8.80;;;2.20;72.50;;;;;;4818799;29;20359;-79
2022/03/08 21:40:42;;;;;;;18.70;9.20;;;2.30;72.80;;;;;;4799649;29;20046;-79
2022/03/08 21:43:20;;;;;;;;;;;;;;;;;;;;;
2022/03/08 21:46:39;;;;;;;23.27;10.25;;;2.10;72.80;;;;;;4889109;29;19934;-78
2022/03/08 21:49:08;;;;;;;18.88;9.80;;;2.00;73.10;;;;;;4888987;29;20045;-79
2022/03/08 21:51:43;;;;;;;18.45;10.15;;;1.90;73.60;;;;;;4890530;29;20112;-80
2022/03/08 21:54:19;;;;;;;20.20;10.80;;;1.90;74.20;;;;;;4915353;29;20323;-79
2022/03/08 22:00:38;;;;;;;18.20;9.15;;;1.90;74.30;;;;;;4947583;29;20050;-79
2022/03/08 22:03:06;;;;;;;17.75;9.35;;;1.90;74.20;;;;;;4929699;29;20058;-79